createdAt,value
2023-01-22T00:00:25.219Z,54.20
2023-01-22T00:03:19.568Z,53.90
2023-01-22T00:06:14.632Z,52.70
2023-01-22T00:09:17.891Z,53.30
2023-01-22T00:12:12.563Z,52.90
2023-01-22T00:15:07.379Z,52.40
2023-01-22T00:18:01.679Z,53.10
2023-01-22T00:20:56.923Z,53.50
2023-01-22T00:23:51.235Z,54.10
2023-01-22T00:26:45.856Z,54.10
2023-01-22T00:29:40.216Z,53.80
2023-01-22T00:32:34.838Z,53.80
2023-01-22T00:35:29.001Z,52.80
2023-01-22T00:38:23.306Z,52.10
2023-01-22T00:41:18.880Z,51.70
2023-01-22T00:44:13.189Z,52.20
2023-01-22T00:47:07.366Z,52.30
2023-01-22T00:50:02.010Z,51.50
2023-01-22T00:52:56.587Z,50.90
2023-01-22T00:56:00.029Z,50.70
2023-01-22T00:58:54.407Z,51.30
2023-01-22T01:01:51.690Z,51.30
2023-01-22T01:04:46.027Z,51.00
2023-01-22T01:07:40.309Z,50.20
2023-01-22T01:10:34.605Z,50.60
2023-01-22T01:13:30.454Z,50.50
2023-01-22T01:16:35.527Z,50.60
2023-01-22T01:19:29.751Z,50.30
2023-01-22T01:22:24.075Z,49.50
2023-01-22T01:25:18.486Z,49.80
2023-01-22T01:28:12.697Z,49.80
2023-01-22T01:31:09.487Z,48.90
2023-01-22T01:34:04.052Z,49.40
2023-01-22T01:36:58.365Z,48.70
2023-01-22T01:39:58.083Z,49.20
2023-01-22T01:42:52.374Z,48.40
2023-01-22T01:45:47.014Z,48.70
2023-01-22T01:48:48.026Z,47.60
2023-01-22T01:51:42.427Z,47.30
2023-01-22T01:54:37.444Z,48.10
2023-01-22T01:57:36.375Z,47.80
2023-01-22T02:00:35.481Z,47.80
2023-01-22T02:03:31.016Z,47.40
2023-01-22T02:06:25.587Z,47.10
2023-01-22T02:09:19.775Z,47.00
2023-01-22T02:12:14.278Z,46.50
2023-01-22T02:15:09.890Z,46.80
2023-01-22T02:18:04.181Z,46.00
2023-01-22T02:21:03.745Z,45.10
2023-01-22T02:23:58.117Z,44.20
2023-01-22T02:26:52.334Z,44.80
2023-01-22T02:29:46.807Z,45.00
2023-01-22T02:32:41.043Z,44.20
2023-01-22T02:35:35.511Z,43.20
2023-01-22T02:38:29.764Z,44.10
2023-01-22T02:41:27.368Z,43.60
2023-01-22T02:44:21.744Z,43.80
2023-01-22T02:47:15.974Z,42.70
2023-01-22T02:50:11.778Z,42.50
2023-01-22T02:53:06.075Z,43.40
2023-01-22T02:56:00.979Z,41.20
2023-01-22T02:58:58.297Z,43.10
2023-01-22T03:01:53.095Z,42.10
2023-01-22T03:04:51.355Z,42.30
2023-01-22T03:07:46.204Z,42.80
2023-01-22T03:10:40.742Z,41.80
2023-01-22T03:13:53.345Z,41.90
2023-01-22T03:17:05.918Z,42.00
2023-01-22T03:20:18.506Z,41.90
2023-01-22T03:23:12.999Z,41.50
2023-01-22T03:26:07.585Z,40.70
2023-01-22T03:29:01.991Z,40.10
2023-01-22T03:31:56.498Z,39.60
2023-01-22T03:34:50.852Z,39.20
2023-01-22T03:37:45.101Z,38.30
2023-01-22T03:40:39.344Z,38.60
2023-01-22T03:43:34.140Z,36.80
2023-01-22T03:46:29.039Z,36.50
2023-01-22T03:49:23.487Z,35.90
2023-01-22T03:52:17.778Z,37.50
2023-01-22T03:55:12.299Z,37.90
2023-01-22T03:58:06.531Z,38.00
2023-01-22T04:01:04.048Z,37.10
2023-01-22T04:03:58.711Z,38.60
2023-01-22T04:06:53.106Z,38.90
2023-01-22T04:09:47.405Z,38.50
2023-01-22T04:12:41.715Z,39.60
2023-01-22T04:15:36.028Z,37.20
2023-01-22T04:18:31.257Z,38.30
2023-01-22T04:21:25.538Z,38.30
2023-01-22T04:24:19.764Z,37.40
2023-01-22T04:27:13.943Z,37.60
2023-01-22T04:30:08.780Z,38.00
2023-01-22T04:33:03.051Z,37.60
2023-01-22T04:35:57.686Z,37.50
2023-01-22T04:38:51.981Z,37.00
2023-01-22T04:41:46.241Z,36.20
2023-01-22T04:44:43.375Z,36.00
2023-01-22T04:47:43.743Z,36.60
2023-01-22T04:50:37.969Z,36.50
2023-01-22T04:53:32.338Z,36.30
2023-01-22T04:56:26.606Z,36.30
2023-01-22T04:59:29.779Z,36.20
2023-01-22T05:02:24.293Z,36.30
2023-01-22T05:05:18.674Z,36.50
2023-01-22T05:08:12.940Z,36.60
2023-01-22T05:11:07.418Z,36.50
2023-01-22T05:14:01.589Z,36.30
2023-01-22T05:16:57.823Z,36.90
2023-01-22T05:19:52.022Z,37.90
2023-01-22T05:22:46.601Z,35.80
2023-01-22T05:25:40.862Z,37.40
2023-01-22T05:28:35.046Z,37.10
2023-01-22T05:31:29.536Z,36.60
2023-01-22T05:34:24.237Z,36.10
2023-01-22T05:37:18.534Z,36.30
2023-01-22T05:40:13.382Z,36.10
2023-01-22T05:43:09.771Z,37.30
2023-01-22T05:46:05.443Z,37.20
2023-01-22T05:49:00.582Z,37.50
2023-01-22T05:51:57.043Z,37.20
2023-01-22T05:54:51.322Z,36.80
2023-01-22T05:57:47.657Z,37.40
2023-01-22T06:00:41.968Z,37.00
2023-01-22T06:03:36.232Z,37.70
2023-01-22T06:06:30.539Z,37.80
2023-01-22T06:09:24.871Z,37.30
2023-01-22T06:12:19.766Z,37.10
2023-01-22T06:15:14.570Z,37.00
2023-01-22T06:18:08.941Z,37.30
2023-01-22T06:21:05.985Z,36.90
2023-01-22T06:24:00.277Z,36.60
2023-01-22T06:26:54.545Z,36.00
2023-01-22T06:29:48.843Z,36.20
2023-01-22T06:32:43.018Z,35.70
2023-01-22T06:35:37.277Z,35.90
2023-01-22T06:38:35.011Z,36.10
2023-01-22T06:41:29.364Z,35.40
2023-01-22T06:44:24.371Z,35.40
2023-01-22T06:47:18.647Z,35.50
2023-01-22T06:50:13.768Z,35.00
2023-01-22T06:53:08.250Z,35.30
2023-01-22T06:56:02.629Z,35.20
2023-01-22T06:58:57.045Z,35.50
2023-01-22T07:01:51.459Z,35.50
2023-01-22T07:04:51.055Z,35.40
2023-01-22T07:07:45.455Z,35.90
2023-01-22T07:10:39.829Z,35.20
2023-01-22T07:13:34.040Z,35.90
2023-01-22T07:16:28.419Z,36.60
2023-01-22T07:19:22.835Z,35.40
2023-01-22T07:22:17.140Z,35.90
2023-01-22T07:25:16.680Z,36.30
2023-01-22T07:28:12.246Z,35.90
2023-01-22T07:31:10.741Z,35.30
2023-01-22T07:34:05.728Z,35.00
2023-01-22T07:36:59.977Z,35.70
2023-01-22T07:39:54.302Z,35.50
2023-01-22T07:42:48.653Z,35.70
2023-01-22T07:45:43.237Z,36.60
2023-01-22T07:48:38.668Z,36.90
2023-01-22T07:51:33.396Z,36.50
2023-01-22T07:54:27.814Z,37.20
2023-01-22T07:57:22.041Z,36.60
2023-01-22T08:00:17.378Z,37.00
2023-01-22T08:03:11.951Z,37.20
2023-01-22T08:06:17.008Z,37.60
2023-01-22T08:09:15.386Z,37.60
2023-01-22T08:12:09.599Z,37.60
2023-01-22T08:15:03.823Z,37.50
2023-01-22T08:17:58.079Z,37.80
2023-01-22T08:20:52.645Z,37.60
2023-01-22T08:23:49.095Z,37.70
2023-01-22T08:26:46.662Z,38.10
2023-01-22T08:29:43.875Z,38.40
2023-01-22T08:32:38.863Z,37.70
2023-01-22T08:35:36.449Z,37.10
2023-01-22T08:38:30.756Z,37.90
2023-01-22T08:41:25.957Z,38.10
2023-01-22T08:44:23.994Z,38.40
2023-01-22T08:47:21.264Z,38.70
2023-01-22T08:50:16.178Z,38.10
2023-01-22T08:53:11.215Z,38.10
2023-01-22T08:56:05.734Z,38.20
2023-01-22T08:59:02.009Z,38.60
2023-01-22T09:01:56.383Z,39.00
2023-01-22T09:04:50.726Z,39.90
2023-01-22T09:07:45.055Z,40.10
2023-01-22T09:10:42.063Z,40.50
2023-01-22T09:13:36.454Z,40.50
2023-01-22T09:16:30.977Z,40.70
2023-01-22T09:19:25.937Z,40.80
2023-01-22T09:22:28.815Z,41.00
2023-01-22T09:25:23.281Z,40.90
2023-01-22T09:28:17.727Z,41.20
2023-01-22T09:31:17.037Z,41.00
2023-01-22T09:34:11.305Z,40.60
2023-01-22T09:37:09.109Z,41.30
2023-01-22T09:40:06.247Z,41.80
2023-01-22T09:43:44.465Z,41.70
2023-01-22T09:46:49.570Z,41.40
2023-01-22T09:50:02.127Z,41.50
2023-01-22T09:52:59.149Z,41.30
2023-01-22T09:55:54.211Z,41.50
2023-01-22T09:58:53.384Z,41.70
2023-01-22T10:01:56.718Z,42.20
2023-01-22T10:04:55.713Z,42.40
2023-01-22T10:07:57.998Z,42.60
2023-01-22T10:10:53.399Z,42.80
2023-01-22T10:13:50.265Z,42.90
2023-01-22T10:16:44.572Z,43.30
2023-01-22T10:19:46.086Z,43.30
2023-01-22T10:22:40.387Z,43.40
2023-01-22T10:25:35.989Z,43.70
2023-01-22T10:28:30.755Z,43.80
2023-01-22T10:31:34.828Z,43.90
2023-01-22T10:34:35.610Z,43.80
2023-01-22T10:37:33.637Z,43.90
2023-01-22T10:40:44.263Z,43.50
2023-01-22T10:43:40.507Z,42.90
2023-01-22T10:46:45.218Z,43.00
2023-01-22T10:49:39.551Z,43.10
2023-01-22T10:52:54.252Z,43.40
2023-01-22T10:55:55.527Z,43.50
2023-01-22T10:58:50.333Z,43.40
2023-01-22T11:01:44.886Z,43.60
2023-01-22T11:04:40.498Z,43.80
2023-01-22T11:07:35.699Z,43.60
2023-01-22T11:10:53.120Z,43.70
2023-01-22T11:13:57.416Z,44.00
2023-01-22T11:16:54.606Z,44.20
2023-01-22T11:20:11.319Z,44.50
2023-01-22T11:23:11.358Z,44.50
2023-01-22T11:26:17.210Z,44.50
2023-01-22T11:29:17.578Z,44.60
2023-01-22T11:32:30.479Z,44.90
2023-01-22T11:35:28.817Z,44.90
2023-01-22T11:38:31.823Z,44.90
2023-01-22T11:41:56.647Z,45.00
2023-01-22T11:44:57.695Z,45.00
2023-01-22T11:48:15.384Z,45.00
2023-01-22T11:51:28.115Z,45.20
2023-01-22T11:54:29.995Z,45.50
2023-01-22T11:57:35.865Z,45.70
2023-01-22T12:00:30.233Z,45.80
2023-01-22T12:03:52.188Z,46.00
2023-01-22T12:07:13.021Z,46.30
2023-01-22T12:10:22.287Z,46.20
2023-01-22T12:13:41.272Z,46.80
2023-01-22T12:16:46.918Z,46.50
2023-01-22T12:20:07.235Z,46.80
2023-01-22T12:23:42.906Z,46.90
2023-01-22T12:27:02.413Z,46.80
2023-01-22T12:30:44.367Z,47.80
2023-01-22T12:33:43.396Z,47.70
2023-01-22T12:36:41.049Z,47.90
2023-01-22T12:40:04.086Z,48.40
2023-01-22T12:43:01.981Z,48.60
2023-01-22T12:46:03.647Z,48.80
2023-01-22T12:49:12.621Z,48.80
2023-01-22T12:52:06.852Z,48.80
2023-01-22T12:55:02.295Z,48.80
2023-01-22T12:57:56.534Z,48.90
2023-01-22T13:01:07.959Z,48.90
2023-01-22T13:04:09.092Z,49.60
2023-01-22T13:07:37.169Z,49.30
2023-01-22T13:10:36.884Z,49.40
2023-01-22T13:13:45.937Z,49.70
2023-01-22T13:16:42.963Z,49.70
2023-01-22T13:19:49.400Z,49.80
2023-01-22T13:22:44.818Z,50.10
2023-01-22T13:25:39.169Z,50.70
2023-01-22T13:28:33.757Z,50.60
2023-01-22T13:31:28.730Z,50.80
2023-01-22T13:34:23.355Z,50.80
2023-01-22T13:37:26.011Z,50.70
2023-01-22T13:40:33.056Z,51.10
2023-01-22T13:43:31.884Z,51.10
2023-01-22T13:46:28.074Z,51.00
2023-01-22T13:49:52.868Z,51.20
2023-01-22T13:52:47.135Z,51.20
2023-01-22T13:55:41.434Z,51.30
2023-01-22T13:58:49.012Z,51.50
2023-01-22T14:01:43.597Z,52.00
2023-01-22T14:04:39.024Z,51.60
2023-01-22T14:07:36.277Z,51.60
2023-01-22T14:10:31.199Z,51.80
2023-01-22T14:13:25.491Z,51.60
2023-01-22T14:16:20.530Z,51.80
2023-01-22T14:19:15.676Z,51.90
2023-01-22T14:22:09.864Z,52.00
2023-01-22T14:25:04.973Z,52.20
2023-01-22T14:28:03.209Z,52.30
2023-01-22T14:31:00.690Z,52.30
2023-01-22T14:33:54.992Z,52.30
2023-01-22T14:36:53.542Z,52.30
2023-01-22T14:39:47.735Z,52.30
2023-01-22T14:42:46.776Z,52.70
2023-01-22T14:45:46.587Z,52.60
2023-01-22T14:48:41.103Z,52.90
2023-01-22T14:51:35.276Z,52.70
2023-01-22T14:54:29.583Z,53.00
2023-01-22T14:57:24.596Z,53.00
2023-01-22T15:00:20.862Z,53.20
2023-01-22T15:03:15.228Z,53.00
2023-01-22T15:06:09.569Z,53.10
2023-01-22T15:09:03.785Z,53.20
2023-01-22T15:11:58.071Z,53.20
2023-01-22T15:14:52.378Z,53.40
2023-01-22T15:17:46.863Z,53.50
2023-01-22T15:20:41.156Z,53.60
2023-01-22T15:23:36.240Z,53.30
2023-01-22T15:26:36.589Z,53.20
2023-01-22T15:29:30.883Z,53.40
2023-01-22T15:32:25.145Z,53.50
2023-01-22T15:35:19.526Z,53.20
2023-01-22T15:38:13.823Z,53.00
2023-01-22T15:41:19.072Z,53.20
2023-01-22T15:44:15.058Z,53.30
2023-01-22T15:47:09.985Z,53.50
2023-01-22T15:50:05.013Z,53.60
2023-01-22T15:52:59.744Z,53.60
2023-01-22T15:55:53.958Z,53.80
2023-01-22T15:58:48.456Z,53.80
2023-01-22T16:01:44.611Z,53.80
2023-01-22T16:04:38.916Z,53.80
2023-01-22T16:07:33.115Z,53.80
2023-01-22T16:10:27.367Z,53.90
2023-01-22T16:13:21.648Z,53.60
2023-01-22T16:16:31.525Z,53.70
2023-01-22T16:19:25.797Z,53.90
2023-01-22T16:22:20.160Z,54.00
2023-01-22T16:25:14.791Z,54.00
2023-01-22T16:28:09.292Z,54.00
2023-01-22T16:31:09.444Z,53.90
2023-01-22T16:34:13.552Z,54.10
2023-01-22T16:37:07.882Z,54.20
2023-01-22T16:40:02.265Z,54.30
2023-01-22T16:43:04.047Z,54.60
2023-01-22T16:45:58.361Z,54.70
2023-01-22T16:49:00.621Z,54.70
2023-01-22T16:51:58.487Z,54.60
2023-01-22T16:54:53.069Z,54.90
2023-01-22T16:57:47.358Z,54.90
2023-01-22T17:00:41.571Z,54.90
2023-01-22T17:03:38.852Z,55.00
2023-01-22T17:06:35.292Z,54.90
2023-01-22T17:09:32.795Z,55.30
2023-01-22T17:12:27.741Z,55.20
2023-01-22T17:15:21.985Z,55.40
2023-01-22T17:18:16.748Z,55.50
2023-01-22T17:21:14.617Z,55.70
2023-01-22T17:24:09.422Z,55.60
2023-01-22T17:27:09.104Z,55.80
2023-01-22T17:30:03.535Z,56.00
2023-01-22T17:32:57.861Z,56.20
2023-01-22T17:35:52.700Z,56.20
2023-01-22T17:38:47.689Z,56.50
2023-01-22T17:41:41.963Z,57.10
2023-01-22T17:44:36.526Z,58.30
2023-01-22T17:47:30.829Z,58.90
2023-01-22T17:50:27.263Z,59.20
2023-01-22T17:53:21.757Z,60.00
2023-01-22T17:56:16.045Z,60.00
2023-01-22T18:02:20.733Z,60.40
2023-01-22T18:05:15.386Z,60.90
2023-01-22T18:08:11.775Z,60.60
2023-01-22T18:11:14.683Z,60.30
2023-01-22T18:14:13.380Z,60.50
2023-01-22T18:17:07.784Z,60.00
2023-01-22T18:20:04.780Z,60.70
2023-01-22T18:22:59.072Z,60.80
2023-01-22T18:25:57.588Z,61.00
2023-01-22T18:28:53.743Z,60.80
2023-01-22T18:31:48.296Z,61.00
2023-01-22T18:34:42.548Z,60.20
2023-01-22T18:37:38.202Z,60.20
2023-01-22T18:40:33.367Z,60.00
2023-01-22T18:43:27.691Z,59.40
2023-01-22T18:46:22.163Z,59.50
2023-01-22T18:49:20.933Z,59.60
2023-01-22T18:52:15.199Z,59.60
2023-01-22T18:55:09.992Z,59.30
2023-01-22T18:58:19.895Z,59.30
2023-01-22T19:01:23.506Z,59.10
2023-01-22T19:04:21.483Z,58.90
2023-01-22T19:07:15.708Z,59.00
2023-01-22T19:10:10.421Z,59.00
2023-01-22T19:13:07.541Z,58.90
2023-01-22T19:16:08.251Z,59.00
2023-01-22T19:19:05.406Z,59.10
2023-01-22T19:21:59.730Z,59.20
2023-01-22T19:24:54.346Z,59.50
2023-01-22T19:27:48.750Z,59.40
2023-01-22T19:30:43.067Z,59.50
2023-01-22T19:33:42.588Z,59.80
2023-01-22T19:36:39.435Z,59.80
2023-01-22T19:39:34.097Z,59.90
2023-01-22T19:42:29.973Z,59.80
2023-01-22T19:45:24.240Z,60.40
2023-01-22T19:48:21.578Z,60.60
2023-01-22T19:51:16.671Z,60.50
2023-01-22T19:54:11.450Z,60.70
2023-01-22T19:57:05.749Z,60.40
2023-01-22T20:00:00.897Z,60.40
2023-01-22T20:02:55.246Z,60.40
2023-01-22T20:05:49.819Z,60.50
2023-01-22T20:08:44.398Z,60.70
2023-01-22T20:11:38.828Z,60.60
2023-01-22T20:14:36.071Z,60.70
2023-01-22T20:17:35.769Z,60.90
2023-01-22T20:20:29.948Z,61.10
2023-01-22T20:23:25.421Z,61.20
2023-01-22T20:26:21.741Z,61.30
2023-01-22T20:29:16.037Z,61.30
2023-01-22T20:32:10.416Z,61.60
2023-01-22T20:35:04.679Z,61.80
2023-01-22T20:37:59.161Z,62.10
2023-01-22T20:40:53.677Z,61.80
2023-01-22T20:43:48.032Z,62.00
2023-01-22T20:46:45.508Z,62.00
2023-01-22T20:49:43.802Z,62.10
2023-01-22T20:52:38.091Z,62.30
2023-01-22T20:55:32.297Z,63.10
2023-01-22T20:58:29.327Z,62.50
2023-01-22T21:01:23.568Z,62.50
2023-01-22T21:04:19.537Z,62.70
2023-01-22T21:07:13.819Z,62.80
2023-01-22T21:10:08.593Z,62.90
2023-01-22T21:13:02.882Z,63.00
2023-01-22T21:15:57.275Z,63.00
2023-01-22T21:18:51.533Z,63.20
2023-01-22T21:21:46.099Z,63.40
2023-01-22T21:24:40.411Z,63.70
2023-01-22T21:27:34.596Z,63.70
2023-01-22T21:30:30.166Z,63.20
2023-01-22T21:33:24.422Z,63.30
2023-01-22T21:36:19.632Z,63.80
2023-01-22T21:39:16.803Z,64.20
2023-01-22T21:42:29.360Z,64.70
2023-01-22T21:45:41.777Z,64.90
2023-01-22T21:48:36.039Z,64.30
2023-01-22T21:51:31.662Z,64.10
2023-01-22T21:54:35.025Z,64.50
2023-01-22T21:57:29.405Z,64.50
2023-01-22T22:00:23.751Z,64.40
2023-01-22T22:03:18.051Z,65.00
2023-01-22T22:06:17.301Z,64.20
2023-01-22T22:09:21.257Z,63.80
2023-01-22T22:12:15.566Z,63.70
2023-01-22T22:15:25.122Z,63.20
2023-01-22T22:18:24.246Z,63.40
2023-01-22T22:21:18.936Z,63.60
2023-01-22T22:24:13.972Z,63.40
2023-01-22T22:27:08.192Z,63.40
2023-01-22T22:30:02.407Z,63.70
2023-01-22T22:32:56.764Z,64.10
2023-01-22T22:35:50.971Z,63.40
2023-01-22T22:38:45.872Z,62.60
2023-01-22T22:41:40.469Z,59.80
2023-01-22T22:44:39.392Z,59.60
2023-01-22T22:47:36.933Z,59.20
2023-01-22T22:50:31.274Z,58.20
2023-01-22T22:53:28.331Z,57.50
2023-01-22T22:56:23.313Z,56.70
2023-01-22T22:59:21.063Z,56.40
2023-01-22T23:02:15.506Z,55.70
2023-01-22T23:05:10.113Z,55.70
2023-01-22T23:08:04.507Z,55.10
2023-01-22T23:10:58.724Z,55.30
2023-01-22T23:13:53.766Z,54.30
2023-01-22T23:16:48.974Z,54.50
2023-01-22T23:19:43.331Z,53.60
2023-01-22T23:22:37.551Z,54.40
2023-01-22T23:25:31.844Z,53.40
2023-01-22T23:28:26.076Z,52.40
2023-01-22T23:31:20.482Z,52.20
2023-01-22T23:34:22.776Z,51.80
2023-01-22T23:37:17.070Z,51.70
2023-01-22T23:40:12.083Z,51.40
2023-01-22T23:43:06.821Z,51.00
2023-01-22T23:46:01.644Z,51.20
2023-01-22T23:48:57.347Z,50.60
2023-01-22T23:51:51.708Z,49.40
2023-01-22T23:54:45.989Z,49.70
2023-01-22T23:57:40.225Z,50.10
